Extreme weather reports worldwide

High winds

Station
 
Location
 
Name
 
Wind
Knots
Gust
Knots
Vis
SM
Temp/Dew
C
Baro
inHg
METAR
 
KMWN 39 52 0.13 7/6 KMWN 211856Z 25039G52KT 1/8SM FG BKN000 BKN040 BKN060 07/06 RMK FG BKN000 FG INTMT
EHSC NL Lichteiland Goeree 38 6.21 16/13 29.56 EHSC 211925Z AUTO 24038KT 9999 ///////// 16/13 Q1001 W14/H27
K0CO 37 44 10 5/-6 30.23 K0CO 211915Z AUTO 29037G44KT 10SM CLR 05/M06 A3023 RMK AO2 PWINO
KMYP 35 45 10 8/-12 30.39 KMYP 211915Z AUTO 23035G45KT 10SM CLR 08/M12 A3039 RMK AO2
TRE EGPU Balemartine, GB Tiree Airport 34 44 1.3 10/9 29.32 EGPU 211850Z AUTO 02034G44KT 320V040 2100 BR BKN009/// BKN017/// 10/09 Q0993 RERA

Station
 
Location
 
Name
 
Wind
Knots
Gust
Knots
Vis
SM
Temp/Dew
C
Baro
inHg
METAR
 
CWPX 34 -11/-13 29.99 CWPX 211900Z AUTO 35034KT ////SM //// SCT004 OVC085 M11/M13 A2999
EHHW Gemini Wind Farm, NL Buitengaats / BG-OHVS2 Helipad 34 6.21 15/13 29.38 EHHW 211925Z AUTO 25034KT 9999 FEW001/// SCT007/// BKN008/// 15/13 Q0995
EHSA NL Europlatform 34 2.42 15/14 29.59 EHSA 211925Z AUTO 24034KT 3900 DZ ///////// 15/14 Q1002 W13/H30
PAUT Akutan, US Akun Airport 33 42 7 6/4 29.92 PAUT 211915Z AUTO 08033G42KT 7SM OVC021 07/04 A2992 RMK AO2 T00680041 PWINO
EHMG 33 6.21 14/12 29.41 EHMG 211925Z AUTO 24033KT 9999 FEW006 BKN007 BKN009 14/12 Q0996
LUR PALU Cape Lisburne, US Cape Lisburne LRRS Airport 32 38 9 3/2 30.44 PALU 211855Z AUTO 18032G38KT 140V220 9SM SCT007 04/02 A3044 RMK AO2 SLP308 T00350020
CXMM 32 -4/-7 CXMM 211900Z AUTO 00032KT M05/M07 RMK AO1 SLP255 T10461072 52021
TNM SCRM Isla Rey Jorge, AQ Teniente Rodolfo Marsh Martin Base 32 0.62 0/0 29.35 SCRM 211900Z 33032KT 1000 DRSN BR BKN002 OVC008 M00/M00 Q0994 NOSIG
EHMA 32 4.97 15/13 29.41 EHMA 211925Z AUTO 22032KT 8000 FEW007 BKN015CB BKN018 15/13 Q0996
RWL KRWL Rawlins, US Rawlins Municipal Airport/Harvey Field 31 39 10 16/-3 29.91 KRWL 211853Z AUTO 24031G39KT 10SM -RA CLR 17/M04 A2991 RMK AO2 PK WND 24044/1842 SLP056 P0000 T01671039
CWIL 31 -4/-4 29.79 CWIL 211900Z AUTO 34031KT ////SM OVC005 M04/M04 A2979
DCM LFCK Castres/Mazamet, FR Castres-Mazamet Airport 31 43 6.21 17/15 29.88 LFCK 211900Z AUTO 13031G43KT CAVOK 17/15 Q1012 TEMPO BKN013
PSY SFAL Stanley, FK Port Stanley Airport 30 40 6.21 7/2 30.24 SFAL 211850Z 33030G40KT 9999 FEW040 07/02 Q1024
ENSE 30 8/2 29.44 ENSE 211920Z AUTO 04030KT 9999NDV FEW031/// BKN140/// 08/02 Q0997 W///S5
ENSF 30 10/1 29.44 ENSF 211920Z AUTO 03030KT 9999NDV SCT031/// BKN140/// 10/01 Q0997 W///S5
AMS EHAM Amsterdam, NL Amsterdam Airport Schiphol 30 42 6.21 16/12 29.53 EHAM 211925Z 23030G42KT 9999 FEW017 BKN021 16/12 Q1000 BECMG 22023G35KT TEMPO BKN018
EHKV 30 6.21 14/13 29.44 EHKV 211925Z AUTO 28030KT 9999 FEW006 14/13 Q0997 REDZ
RKS KRKS Rock Springs, US Southwest Wyoming Regional Airport 29 36 10 15/0 29.94 KRKS 211854Z AUTO 25029G36KT 10SM CLR 16/00 A2994 RMK AO2 PK WND 26043/1839 SLP082 T01560000
CWEL 29 34 9/4 CWEL 211900Z AUTO 35029G34KT 10/05 RMK AO1 PK WND 34034/1856 SLP202 T00990046 50009
FBU ENFB Oslo, NO Oslo, Fornebu Airport 29 8/2 29.44 ENFB 211920Z AUTO 03029KT 9999NDV SCT030/// BKN130/// 08/02 Q0997 W///S5
ENGC 29 6.21 9/3 29.41 ENGC 211920Z 05029KT 9999 FEW015 BKN025 09/03 Q0996 W09/S4
KVC PAVC King Cove, US King Cove Airport 28 36 10 7/3 30.08 PAVC 211856Z AUTO 11028G36KT 10SM BKN027 OVC032 08/03 A3008 RMK AO2 PK WND 10039/1827 SLP188 T00780033
EHQE 28 14/13 29.47 EHQE 211925Z AUTO 22028KT //// // VV/// //////CB 14/13 Q0998 RE//
STG PAPB St George, US St George Airport 28 37 10 6/1 30.12 PAPB 211928Z AUTO 08028G37KT 10SM SCT027 OVC032 06/01 A3012 RMK AO2 PK WND 08037/1921 T00610011 TSNO
AKB PAAK Atka, US Atka Airport 27 39 1.25 5/4 29.68 PAAK 211856Z AUTO 07027G39KT 1 1/4SM -RA BR BKN012 OVC017 06/04 A2968 RMK AO2 PK WND 07039/1851 SLP052 P0000 T00560044
CWGB 27 9/4 CWGB 211900Z AUTO 29027KT 10/04 RMK AO1 PK WND 29031/1814 SLP206 T00980043 51017
EHJA 27 13/12 29.41 EHJA 211925Z AUTO 26027KT //// // FEW002/// SCT003/// BKN008/// 13/12 Q0996 RE//
EHVL Vlieland, NL Vlieland Heliport 27 4.97 15/14 29.44 EHVL 211925Z AUTO 24027KT 8000 BR FEW007 SCT009 BKN010 15/14 Q0997 GRN
CFN EIDL Donegal, IE Donegal Airport 26 6.21 10/5 29.50 EIDL 211830Z 34026KT 9999 SCT023 OVC026 10/05 Q0999
PIH KPIH Pocatello, US Pocatello Regional Airport 26 36 10 12/2 29.95 KPIH 211853Z 24026G36KT 10SM FEW038 BKN048 12/02 A2995 RMK AO2 PK WND 23039/1826 SLP123 T01220022
RXE KRXE Rexburg, US Rexburg Madison County Airport 26 39 10 12/0 29.85 KRXE 211853Z AUTO 23026G39KT 10SM BKN043 BKN049 13/01 A2985 RMK AO2 PK WND 22039/1850 SLP087 T01280006
CDB PACD Cold Bay, US Cold Bay Airport 26 35 10 7/2 30.07 PACD 211853Z 09026G35KT 10SM SCT020 BKN040 08/02 A3007 RMK AO2 PK WND 09038/1824 SLP182 T00780022 $
CYUA 26 33 -8/-11 30.59 CYUA 211900Z AUTO 20026G33KT ////SM NCD M08/M11 A3059
YZG CYZG Salluit, CA Salluit Airport 26 5 -2/-4 29.85 CYZG 211900Z 21026KT 5SM -SN BLSN SCT008 BKN027 BKN068 M02/M04 A2985 RMK BLSN2ST3SC2AS2 VIS-10SM NE/ SNW CVR/TRACELOOSE/LAST STFD OBS/NEXT221200 UTC SLP128
CPR KCPR Casper, US Casper-Natrona County International Airport 26 34 10 19/0 29.77 KCPR 211914Z 24026G34KT 10SM -RA BKN085 19/00 A2977 RMK AO2 PK WND 24034/1910 RAB06 P0000 T01940000
KFWZ 26 38 10 10/-3 29.81 KFWZ 211915Z AUTO 24026G38KT 10SM CLR 10/M03 A2981 RMK AO2
LEY EHLE Lelystad, NL Lelystad Airport 26 37 6.21 17/12 29.53 EHLE 211925Z AUTO 23026G37KT 200V270 9999 BKN026 OVC029 17/12 Q1000 NOSIG
YZX CYZX Greenwood, CA CFB Greenwood 26 12 15/13 30.26 CYZX 211928Z 14026KT 12SM OVC010 15/13 A3026 RMK SC8 SLP248
EHFS 25 6.21 16/13 29.62 EHFS 211855Z AUTO 23025KT 9999 BKN016/// 16/13 Q1003
LIMH IT Pian Rosà 25 38 6.21 0/-2 30.30 LIMH 211855Z 19025G38KT 9999 SCT050 M00/M02 Q1026 RMK BKN SCT100 MON LIB VAL S MAR CLD VIS MIN 9999
CWGT 25 30 9/4 CWGT 211900Z AUTO 32025G30KT 10/04 RMK AO1 PK WND 33031/1817 SLP214 T00970043 51020
KOI EGPA Orkney Islands, GB Kirkwall Airport 25 4.35 9/8 29.41 EGPA 211920Z AUTO 04025KT 7000 -RA BKN004/// OVC011/// 09/08 Q0996
LSI EGPB Lerwick, GB Sumburgh Airport 25 6.21 8/6 29.44 EGPB 211920Z AUTO 05025KT 9999 OVC012/// 08/06 Q0997
EHPG 25 2.92 15/14 29.53 EHPG 211925Z AUTO 27025KT 240V310 4700 DZ FEW000 SCT005 BKN014 FEW015CB 15/14 Q1000
IDA KIDA Idaho Falls, US Idaho Falls Regional Airport 24 38 10 12/1 29.88 KIDA 211853Z 23024G38KT 10SM BKN045 OVC055 13/02 A2988 RMK AO2 PK WND 22039/1842 SLP102 T01280017